WetterOnline ( https://www.wetteronline.de )

Wetter aktuell Oberpörlitz

Aktuelles Wetter: Schmücke (948m)

6-stündlich | Neueste Meldungen
Ortszeit Temperatur Wetter
Do, 23.05. 14:00 12.7° C bedeckt
Do, 23.05. 8:00 7.5° C leicht bewölkt
Do, 23.05. 2:00 5.8° C wolkig
Mi, 22.05. 20:00 7.7° C leicht bewölkt
Mi, 22.05. 14:00 7.6° C Sprühregen
Mi, 22.05. 8:00 7.5° C Sprühregen
Mi, 22.05. 2:00 8.4° C Sprühregen
Di, 21.05. 20:00 9.3° C Nebel
Ortszeit Temperatur Wetter
Do, 23.05. 14:10 14.0° C bewölkt
Do, 23.05. 14:00 12.7° C bedeckt
Do, 23.05. 13:50 12.7° C bedeckt
Do, 23.05. 13:40 12.2° C bedeckt
Do, 23.05. 13:30 12.4° C bewölkt
Do, 23.05. 13:20 12.4° C bewölkt
Do, 23.05. 13:00 11.8° C bewölkt
Do, 23.05. 12:30 11.5° C bewölkt
Do, 23.05. 12:00 11.2° C wolkig
Do, 23.05. 11:30 11.4° C bewölkt
Ortszeit Relative Feuchte Sichtweite
Do, 23.05. 14:00 55% 45 km
Do, 23.05. 8:00 90% 22 km
Do, 23.05. 2:00 90% 15 km
Mi, 22.05. 20:00 90% 27 km
Mi, 22.05. 14:00 99% 100 m
Mi, 22.05. 8:00 99% 0.4 km
Mi, 22.05. 2:00 99% 100 m
Di, 21.05. 20:00 99% 100 m
Ortszeit Relative Feuchte Sichtweite
Do, 23.05. 14:10 51% -
Do, 23.05. 14:00 55% 45 km
Do, 23.05. 13:50 55% -
Do, 23.05. 13:40 57% -
Do, 23.05. 13:30 59% 35 km
Do, 23.05. 13:20 59% -
Do, 23.05. 13:00 60% 35 km
Do, 23.05. 12:30 63% 35 km
Do, 23.05. 12:00 68% 40 km
Do, 23.05. 11:30 69% 30 km
Ortszeit Niederschlagsmenge Niederschlagsart
Do, 23.05. 14:00 0.0 l/m2 in 6 Std. -
Do, 23.05. 8:00 0.0 l/m2 in 12 Std. -
Do, 23.05. 2:00 0.0 l/m2 in 6 Std. -
Mi, 22.05. 20:00 0.1 l/m2 in 12 Std. Regen
Mi, 22.05. 14:00 0.1 l/m2 in 6 Std. Sprühregen
Mi, 22.05. 8:00 0.8 l/m2 in 12 Std. Regen
Mi, 22.05. 2:00 0.4 l/m2 in 6 Std. Regen
Di, 21.05. 20:00 4 l/m2 in 12 Std. Regen
Ortszeit Niederschlagsmenge Niederschlagsart
Do, 23.05. 14:10 keine Meldung -
Do, 23.05. 14:00 0.0 l/m2 in 1 Std. -
Do, 23.05. 13:50 keine Meldung -
Do, 23.05. 13:40 keine Meldung -
Do, 23.05. 13:30 keine Meldung -
Do, 23.05. 13:20 keine Meldung -
Do, 23.05. 13:00 0.0 l/m2 in 1 Std. -
Do, 23.05. 12:30 0.0 l/m2 in 1 Std. -
Do, 23.05. 12:00 0.0 l/m2 in 1 Std. -
Do, 23.05. 11:30 0.0 l/m2 in 1 Std. -
Ortszeit Stärke Spitze Richtung
km/h Bft. km/h Grad Sektor
Do, 23.05. 14:00 6 1 28 330° NW
Do, 23.05. 8:00 6 1 13 260° W
Do, 23.05. 2:00 7 2 22 330° NW
Mi, 22.05. 20:00 9 2 30 300° NW
Mi, 22.05. 14:00 13 3 33 280° W
Mi, 22.05. 8:00 13 3 39 310° NW
Mi, 22.05. 2:00 14 3 43 320° NW
Di, 21.05. 20:00 14 3 40 320° NW
Ortszeit Stärke Spitze Richtung
km/h Bft. km/h Grad Sektor
Do, 23.05. 14:10 7 2 - 240° SW
Do, 23.05. 14:00 6 1 13 330° NW
Do, 23.05. 13:50 6 1 - 330° NW
Do, 23.05. 13:40 7 2 - 340° N
Do, 23.05. 13:30 6 1 13 220° SW
Do, 23.05. 13:20 6 1 - 220° SW
Do, 23.05. 13:00 6 1 22 310° NW
Do, 23.05. 12:30 7 2 22 280° W
Do, 23.05. 12:00 11 2 25 260° W
Do, 23.05. 11:30 9 2 22 250° W
Ortszeit Untergrenze Bedeckung Gattung
total tief tief mittel hoch
Do, 23.05. 14:00 1140 m 8/8 8/8 - - -
Do, 23.05. 8:00 9000 m 7/8 0/8 - - -
Do, 23.05. 2:00 660 m 6/8 6/8 - - -
Mi, 22.05. 20:00 450 m 3/8 2/8 - - -
Mi, 22.05. 14:00 <30 m 8/8 0/8 - - -
Mi, 22.05. 8:00 <30 m 8/8 0/8 - - -
Mi, 22.05. 2:00 <30 m 8/8 0/8 - - -
Di, 21.05. 20:00 <30 m 8/8 0/8 - - -
Ortszeit Bedeckungsgrad in Achtel und Wolkenuntergrenze
Do, 23.05. 14:10 7(1230m) 7(8700m)
Do, 23.05. 14:00 8(1140m) 7(8700m)
Do, 23.05. 13:50 8(1140m)
Do, 23.05. 13:40 8(1110m)
Do, 23.05. 13:30 7(1080m) 7(1290m)
Do, 23.05. 13:20 7(1080m) 7(1290m)
Do, 23.05. 13:00 7(1020m) 8(8700m) 8(9000m)
Do, 23.05. 12:30 5(870m) 7(1080m) 7(9000m)
Do, 23.05. 12:00 2(750m) 7(7800m) 7(8400m)
Do, 23.05. 11:30 5(810m) 8(5100m) 8(6900m)
Ortszeit Stationsdruck (hPa) Tendenz (hPa in 3 Std.)
Do, 23.05. 14:00 912 - 0,4
Do, 23.05. 8:00 911 + 0,2
Do, 23.05. 2:00 911 + 0,3
Mi, 22.05. 20:00 910 + 0,4
Mi, 22.05. 14:00 909 + 0,9
Mi, 22.05. 8:00 907 + 1,0
Mi, 22.05. 2:00 905 + 0,4
Di, 21.05. 20:00 903 + 1,3
Ortszeit Stationsdruck (hPa) Tendenz (hPa in 3 Std.)
Do, 23.05. 14:10 911 keine Meldung
Do, 23.05. 14:00 912 - 0,4
Do, 23.05. 13:50 912 keine Meldung
Do, 23.05. 13:40 912 keine Meldung
Do, 23.05. 13:30 912 - 0,3
Do, 23.05. 13:20 912 keine Meldung
Do, 23.05. 13:00 912 - 0,2
Do, 23.05. 12:30 912 + 0,1
Do, 23.05. 12:00 912 + 0,3
Do, 23.05. 11:30 912 + 0,3
Ortszeit Schneehöhe (cm)
Do, 23.05. 14:00 -
Do, 23.05. 8:00 -
Do, 23.05. 2:00 -
Mi, 22.05. 20:00 -
Mi, 22.05. 14:00 -
Mi, 22.05. 8:00 -
Mi, 22.05. 2:00 -
Di, 21.05. 20:00 -
Ortszeit Schneehöhe (cm)
Do, 23.05. 14:10 -
Do, 23.05. 14:00 -
Do, 23.05. 13:50 -
Do, 23.05. 13:40 -
Do, 23.05. 13:30 -
Do, 23.05. 13:20 -
Do, 23.05. 13:00 -
Do, 23.05. 12:30 -
Do, 23.05. 12:00 -
Do, 23.05. 11:30 -
Link zu dieser Seite / Seite empfehlen

Das Wetter in ...